Time;durP1;ratioP1;P1;durP2;ratioP2;P2;SDS_P1;SDS_P2;PMS_P1;PMS_P2;Temp;Humidity;BMP_temperature;BMP_pressure;BME280_temperature;BME280_humidity;BME280_pressure;Samples;Min_cycle;Max_cycle;Signal;HPM_P1;HPM_P2
2023/03/24 00:02:03;;;;;;;3.80;1.90;;;12.20;99.90;;;;;;5005541;28;20277;-71
2023/03/24 00:04:30;;;;;;;3.23;2.07;;;12.20;99.90;;;;;;5007046;28;20570;-71
2023/03/24 00:06:57;;;;;;;2.93;2.10;;;12.20;99.90;;;;;;5008654;28;20272;-72
2023/03/24 00:09:24;;;;;;;2.77;2.30;;;12.20;99.90;;;;;;5008291;28;20236;-72
2023/03/24 00:11:53;;;;;;;2.53;2.10;;;12.10;99.90;;;;;;5008097;28;20283;-72
2023/03/24 00:14:20;;;;;;;2.33;2.13;;;12.10;99.90;;;;;;5008299;28;20217;-71
2023/03/24 00:16:48;;;;;;;2.10;1.90;;;11.80;99.90;;;;;;5007602;28;20206;-71
2023/03/24 00:19:17;;;;;;;2.50;2.30;;;11.80;99.90;;;;;;5007774;28;20201;-72
2023/03/24 00:21:44;;;;;;;2.03;1.93;;;11.80;99.90;;;;;;5007751;28;20567;-71
2023/03/24 00:24:12;;;;;;;2.23;2.03;;;11.80;99.90;;;;;;5007945;28;20232;-71
2023/03/24 00:26:41;;;;;;;2.47;2.07;;;11.80;99.90;;;;;;5007547;28;20581;-71
2023/03/24 00:29:11;;;;;;;2.67;2.00;;;11.90;99.90;;;;;;5007760;28;20240;-71
2023/03/24 00:31:39;;;;;;;3.73;2.30;;;11.90;99.90;;;;;;5007826;28;20202;-71
2023/03/24 00:34:07;;;;;;;1.90;1.80;;;11.90;99.90;;;;;;5007368;28;20212;-71
2023/03/24 00:36:35;;;;;;;2.10;1.90;;;11.90;99.90;;;;;;5007629;28;20303;-71
2023/03/24 00:39:03;;;;;;;1.97;1.87;;;12.00;99.90;;;;;;5007806;28;20253;-72
2023/03/24 00:41:30;;;;;;;2.47;2.23;;;12.00;99.90;;;;;;5007568;28;20295;-71
2023/03/24 00:44:02;;;;;;;1.80;1.70;;;12.00;99.90;;;;;;5007648;28;20598;-71
2023/03/24 00:46:32;;;;;;;2.10;2.00;;;12.00;99.90;;;;;;5007801;28;20770;-71
2023/03/24 00:49:02;;;;;;;1.90;1.80;;;12.00;99.90;;;;;;5007562;28;20276;-72
2023/03/24 00:51:31;;;;;;;2.83;1.70;;;12.00;99.90;;;;;;5007996;28;20292;-72
2023/03/24 00:53:58;;;;;;;2.13;2.03;;;12.00;99.90;;;;;;5007112;28;20251;-72
2023/03/24 00:56:26;;;;;;;1.93;1.83;;;12.00;99.90;;;;;;5007983;28;20251;-72
2023/03/24 00:58:56;;;;;;;1.90;1.80;;;11.90;99.90;;;;;;5007220;28;20213;-72
2023/03/24 01:01:24;;;;;;;1.80;1.70;;;11.90;99.90;;;;;;5007166;28;20213;-73
2023/03/24 01:03:52;;;;;;;1.77;1.67;;;11.90;99.90;;;;;;5006891;28;20205;-73
2023/03/24 01:06:21;;;;;;;1.80;1.70;;;11.90;99.90;;;;;;5007065;28;20264;-72
2023/03/24 01:08:49;;;;;;;2.83;1.90;;;11.90;99.90;;;;;;5006727;28;20275;-72
2023/03/24 01:11:16;;;;;;;1.80;1.70;;;11.90;99.90;;;;;;5003462;28;20335;-74
2023/03/24 01:13:43;;;;;;;2.00;1.90;;;11.90;99.90;;;;;;4987246;28;20207;-74
2023/03/24 01:16:10;;;;;;;2.03;1.80;;;11.90;99.90;;;;;;4987663;28;20210;-74
2023/03/24 01:18:39;;;;;;;2.07;1.97;;;11.90;99.90;;;;;;5006918;28;20213;-74
2023/03/24 01:21:09;;;;;;;2.17;1.97;;;11.90;99.90;;;;;;5007021;28;20228;-73
2023/03/24 01:23:38;;;;;;;1.77;1.60;;;11.90;99.90;;;;;;5007066;28;20205;-73
2023/03/24 01:26:07;;;;;;;1.93;1.83;;;11.90;99.90;;;;;;5006989;28;20280;-73
2023/03/24 01:28:39;;;;;;;1.97;1.87;;;11.90;99.90;;;;;;5006800;28;20238;-73
2023/03/24 01:31:08;;;;;;;1.70;1.60;;;11.90;99.90;;;;;;5006888;28;20650;-73
2023/03/24 01:33:35;;;;;;;1.50;1.50;;;11.90;99.90;;;;;;5006394;28;20210;-73
2023/03/24 01:36:03;;;;;;;2.80;1.50;;;11.90;99.90;;;;;;5006624;28;20209;-73
2023/03/24 01:38:31;;;;;;;1.30;1.30;;;11.90;99.90;;;;;;5006325;28;20235;-73
2023/03/24 01:40:59;;;;;;;1.83;1.70;;;11.90;99.90;;;;;;5005479;28;20252;-73
2023/03/24 01:43:29;;;;;;;1.70;1.60;;;11.90;99.90;;;;;;5006219;28;20217;-72
2023/03/24 01:46:12;;;;;;;1.80;1.43;;;11.90;99.90;;;;;;5006131;28;20321;-73
2023/03/24 01:48:43;;;;;;;2.17;1.50;;;12.00;99.90;;;;;;5005900;28;20214;-72
2023/03/24 01:51:15;;;;;;;1.63;1.50;;;11.90;99.90;;;;;;5006439;28;20268;-72
2023/03/24 01:53:49;;;;;;;1.50;1.50;;;11.90;99.90;;;;;;5006569;28;20221;-72
2023/03/24 01:56:16;;;;;;;1.83;1.73;;;11.90;99.90;;;;;;5006410;28;20196;-73
2023/03/24 01:58:49;;;;;;;1.77;1.67;;;11.90;99.90;;;;;;5006311;28;20216;-72
2023/03/24 02:01:16;;;;;;;1.60;1.50;;;11.90;99.90;;;;;;5005892;28;20252;-73
2023/03/24 02:03:44;;;;;;;1.73;1.50;;;11.90;99.90;;;;;;5006018;28;20209;-70
2023/03/24 02:06:15;;;;;;;1.70;1.60;;;11.90;99.90;;;;;;5006391;28;20213;-73
2023/03/24 02:08:48;;;;;;;1.53;1.43;;;11.90;99.90;;;;;;5006213;28;20273;-72
2023/03/24 02:11:16;;;;;;;1.70;1.60;;;11.90;99.90;;;;;;5002704;28;20303;-72
2023/03/24 02:13:43;;;;;;;1.77;1.67;;;11.90;99.90;;;;;;4991058;28;20210;-72
2023/03/24 02:16:21;;;;;;;1.70;1.60;;;11.90;99.90;;;;;;5026219;28;20271;-72
2023/03/24 02:19:00;;;;;;;1.40;1.40;;;11.90;99.90;;;;;;5025609;28;20200;-70
2023/03/24 02:22:14;;;;;;;1.70;1.60;;;12.00;99.90;;;;;;5025607;28;20729;-71
2023/03/24 02:25:05;;;;;;;1.80;1.70;;;11.90;99.90;;;;;;4979742;28;20619;-71
2023/03/24 02:27:48;;;;;;;1.80;1.70;;;11.90;99.90;;;;;;5003934;28;20194;-71
2023/03/24 02:30:40;;;;;;;1.73;1.63;;;11.90;99.90;;;;;;5004039;28;20226;-70
2023/03/24 02:33:31;;;;;;;1.70;1.60;;;11.90;99.90;;;;;;5004041;28;20206;-71
2023/03/24 02:36:42;;;;;;;1.60;1.50;;;11.90;99.90;;;;;;4974338;28;20206;-71
2023/03/24 02:39:45;;;;;;;1.33;1.23;;;11.90;99.90;;;;;;5003860;28;20213;-70
2023/03/24 02:42:23;;;;;;;1.40;1.40;;;11.90;99.90;;;;;;4996497;28;20217;-72
2023/03/24 02:44:57;;;;;;;1.87;1.70;;;11.90;99.90;;;;;;5007383;28;20201;-72
2023/03/24 02:47:29;;;;;;;1.50;1.37;;;11.80;99.90;;;;;;5003641;28;20919;-72
2023/03/24 02:50:03;;;;;;;1.60;1.50;;;11.70;99.90;;;;;;5003692;28;20245;-72
2023/03/24 02:52:37;;;;;;;1.90;1.80;;;11.70;99.90;;;;;;5005526;28;20248;-73
2023/03/24 02:55:10;;;;;;;2.10;1.60;;;11.70;99.90;;;;;;5005254;28;20617;-72
2023/03/24 02:57:44;;;;;;;1.80;1.60;;;11.70;99.90;;;;;;5004554;28;20373;-72
2023/03/24 03:00:17;;;;;;;1.80;1.70;;;11.70;99.90;;;;;;5004219;28;20209;-72
2023/03/24 03:02:50;;;;;;;2.67;1.70;;;11.80;99.90;;;;;;5004843;28;20298;-72
2023/03/24 03:05:22;;;;;;;1.77;1.67;;;11.80;99.90;;;;;;5003945;28;20675;-72
2023/03/24 03:07:52;;;;;;;1.73;1.63;;;11.80;99.90;;;;;;5004573;28;20252;-72
2023/03/24 03:10:24;;;;;;;1.90;1.80;;;11.80;99.90;;;;;;5003692;28;20299;-72
2023/03/24 03:12:55;;;;;;;1.93;1.73;;;11.80;99.90;;;;;;5004065;28;20221;-72
2023/03/24 03:15:25;;;;;;;2.30;1.90;;;11.80;99.90;;;;;;5004572;28;20727;-72
2023/03/24 03:17:58;;;;;;;1.83;1.70;;;11.80;99.90;;;;;;5004305;28;20209;-72
2023/03/24 03:20:29;;;;;;;2.10;1.50;;;11.80;99.90;;;;;;5005284;28;20658;-72
2023/03/24 03:23:01;;;;;;;2.00;1.90;;;11.70;99.90;;;;;;5005377;28;20201;-72
2023/03/24 03:25:31;;;;;;;2.03;1.90;;;11.80;99.90;;;;;;5005961;28;20201;-72
2023/03/24 03:28:03;;;;;;;1.90;1.70;;;11.80;99.90;;;;;;5005353;28;20213;-72
2023/03/24 03:30:36;;;;;;;1.70;1.60;;;11.70;99.90;;;;;;5005071;28;20253;-72
2023/03/24 03:33:06;;;;;;;2.00;1.80;;;11.70;99.90;;;;;;5004985;28;20201;-72
2023/03/24 03:35:38;;;;;;;1.87;1.77;;;11.70;99.90;;;;;;5004666;28;20677;-72
2023/03/24 03:38:12;;;;;;;1.90;1.80;;;11.70;99.90;;;;;;5005375;28;20202;-71
2023/03/24 03:40:42;;;;;;;2.60;2.00;;;11.70;99.90;;;;;;5008897;28;20204;-72
2023/03/24 03:43:11;;;;;;;1.90;1.80;;;11.70;99.90;;;;;;4996218;28;20206;-72
2023/03/24 03:45:38;;;;;;;1.97;1.87;;;11.70;99.90;;;;;;4998832;28;20210;-72
2023/03/24 03:48:06;;;;;;;2.30;2.10;;;11.70;99.90;;;;;;5008751;28;20209;-72
2023/03/24 03:50:33;;;;;;;2.40;1.70;;;11.70;99.90;;;;;;5008194;28;20767;-72
2023/03/24 03:53:01;;;;;;;2.17;2.00;;;11.70;99.90;;;;;;5008463;28;20220;-72
2023/03/24 03:55:28;;;;;;;2.57;2.10;;;11.70;99.90;;;;;;5008584;28;20920;-72
2023/03/24 03:57:55;;;;;;;2.57;2.20;;;11.70;99.90;;;;;;5008365;28;20213;-72
2023/03/24 04:00:24;;;;;;;2.23;2.07;;;11.70;99.90;;;;;;5008592;28;20280;-72
2023/03/24 04:03:21;;;;;;;2.03;1.93;;;11.70;99.90;;;;;;5008320;28;20205;-71
2023/03/24 04:05:53;;;;;;;2.27;2.10;;;11.70;99.90;;;;;;5008694;28;20201;-72
2023/03/24 04:08:26;;;;;;;2.23;2.07;;;11.70;99.90;;;;;;5008438;28;20983;-72
2023/03/24 04:11:18;;;;;;;1.90;1.80;;;11.60;99.90;;;;;;5007880;28;20248;-72
2023/03/24 04:13:54;;;;;;;2.87;2.03;;;11.60;99.90;;;;;;4988923;28;20199;-72
2023/03/24 04:16:34;;;;;;;4.40;2.40;;;11.70;99.90;;;;;;4988701;28;20194;-72
2023/03/24 04:19:13;;;;;;;2.10;2.00;;;11.60;99.90;;;;;;4988363;28;20198;-72
2023/03/24 04:21:52;;;;;;;2.50;2.30;;;11.70;99.90;;;;;;4988529;28;20198;-72
2023/03/24 04:24:33;;;;;;;2.60;2.40;;;11.70;99.90;;;;;;4988606;28;20558;-73
2023/03/24 04:27:08;;;;;;;2.27;2.17;;;11.70;99.90;;;;;;4988551;28;20198;-71
2023/03/24 04:29:41;;;;;;;2.30;2.20;;;11.70;99.90;;;;;;5006525;28;20220;-71
2023/03/24 04:32:18;;;;;;;2.50;2.40;;;11.70;99.90;;;;;;5007356;28;20672;-71
2023/03/24 04:34:49;;;;;;;2.60;2.40;;;11.70;99.90;;;;;;5007681;28;20208;-71
2023/03/24 04:37:21;;;;;;;2.63;2.30;;;11.70;99.90;;;;;;5008018;28;20202;-72
2023/03/24 04:39:49;;;;;;;2.50;2.37;;;11.70;99.90;;;;;;5007892;28;20209;-72
2023/03/24 04:42:21;;;;;;;2.20;2.10;;;11.70;99.90;;;;;;5015582;28;20324;-72
2023/03/24 04:44:50;;;;;;;3.70;2.60;;;11.70;99.90;;;;;;5024332;28;20284;-72
2023/03/24 04:47:22;;;;;;;2.80;2.60;;;11.70;99.90;;;;;;5007794;28;20213;-72
2023/03/24 04:49:49;;;;;;;2.67;2.47;;;11.70;99.90;;;;;;5004554;28;20233;-72
2023/03/24 04:52:16;;;;;;;3.93;2.50;;;11.70;99.90;;;;;;5007717;28;20657;-72
2023/03/24 04:54:43;;;;;;;2.53;2.33;;;11.70;99.90;;;;;;5007366;28;20725;-72
2023/03/24 04:57:10;;;;;;;2.83;2.60;;;11.70;99.90;;;;;;5007676;28;20205;-72
2023/03/24 04:59:37;;;;;;;2.60;2.40;;;11.70;99.90;;;;;;5007336;28;20783;-72
2023/03/24 05:02:04;;;;;;;3.10;2.80;;;11.80;99.90;;;;;;5007519;28;20645;-72
2023/03/24 05:04:35;;;;;;;2.80;2.60;;;11.80;99.90;;;;;;5007070;28;20216;-72
2023/03/24 05:07:02;;;;;;;4.07;2.77;;;11.80;99.90;;;;;;5007464;28;20208;-71
2023/03/24 05:09:31;;;;;;;3.33;2.67;;;11.80;99.90;;;;;;5007440;28;20209;-72
2023/03/24 05:11:58;;;;;;;3.23;3.03;;;11.70;99.90;;;;;;5007189;28;20210;-72
2023/03/24 05:14:25;;;;;;;2.80;2.60;;;11.80;99.90;;;;;;5007185;28;20296;-71
2023/03/24 05:16:52;;;;;;;2.77;2.67;;;11.80;99.90;;;;;;5007065;28;20205;-72
2023/03/24 05:19:19;;;;;;;3.40;2.70;;;11.70;99.90;;;;;;5007185;28;20209;-72
2023/03/24 05:21:47;;;;;;;3.07;2.87;;;11.80;99.90;;;;;;5007190;28;20205;-72
2023/03/24 05:24:14;;;;;;;3.20;2.97;;;11.80;99.90;;;;;;5007102;28;20322;-72
2023/03/24 05:26:41;;;;;;;3.23;2.93;;;11.80;99.90;;;;;;5006906;28;20197;-72
2023/03/24 05:29:08;;;;;;;2.67;2.57;;;11.80;99.90;;;;;;5007103;28;20258;-72
2023/03/24 05:31:35;;;;;;;3.30;3.10;;;11.80;99.90;;;;;;5007063;28;20230;-72
2023/03/24 05:34:01;;;;;;;3.40;3.10;;;11.80;99.90;;;;;;5006823;28;20206;-72
2023/03/24 05:36:28;;;;;;;3.10;2.90;;;11.80;99.90;;;;;;5007094;28;20300;-72
2023/03/24 05:38:56;;;;;;;3.20;2.90;;;11.80;99.90;;;;;;5006926;28;20220;-72
2023/03/24 05:41:23;;;;;;;3.33;3.03;;;11.80;99.90;;;;;;5006077;28;20320;-73
2023/03/24 05:43:50;;;;;;;3.43;3.13;;;11.80;99.90;;;;;;5006772;28;20328;-73
2023/03/24 05:46:17;;;;;;;3.30;3.03;;;11.80;99.90;;;;;;5006762;28;20209;-72
2023/03/24 05:48:45;;;;;;;2.90;2.70;;;11.80;99.90;;;;;;5006438;28;20881;-72
2023/03/24 05:51:12;;;;;;;4.03;2.97;;;11.90;99.90;;;;;;5007134;28;20251;-72
2023/03/24 05:53:39;;;;;;;3.17;2.97;;;11.90;99.90;;;;;;5007106;28;20219;-71
2023/03/24 05:56:10;;;;;;;3.27;2.83;;;11.90;99.90;;;;;;5007136;28;20201;-71
2023/03/24 05:58:38;;;;;;;3.07;2.70;;;11.90;99.90;;;;;;5006766;28;21009;-71
2023/03/24 06:01:07;;;;;;;3.20;2.90;;;11.90;99.90;;;;;;5006331;28;20292;-72
2023/03/24 06:03:37;;;;;;;3.33;3.03;;;11.90;99.90;;;;;;5006552;28;20205;-72
2023/03/24 06:06:06;;;;;;;3.00;2.87;;;11.90;99.90;;;;;;5006683;28;20213;-72
2023/03/24 06:08:33;;;;;;;2.67;2.50;;;11.90;99.90;;;;;;5006533;28;20286;-72
2023/03/24 06:11:02;;;;;;;2.90;2.70;;;12.00;99.90;;;;;;5005954;28;20269;-72
2023/03/24 06:13:31;;;;;;;3.10;2.87;;;12.00;99.90;;;;;;5006297;28;20212;-71
2023/03/24 06:15:58;;;;;;;2.60;2.50;;;12.00;99.90;;;;;;5006087;28;20684;-72
2023/03/24 06:18:26;;;;;;;4.93;2.70;;;12.10;99.90;;;;;;5005992;28;20222;-72
2023/03/24 06:20:55;;;;;;;3.00;2.80;;;12.10;99.90;;;;;;5005708;28;20228;-72
2023/03/24 06:23:24;;;;;;;2.80;2.60;;;12.10;99.90;;;;;;5006022;28;20260;-71
2023/03/24 06:25:52;;;;;;;3.20;3.00;;;12.20;99.90;;;;;;5005994;28;20315;-72
2023/03/24 06:28:19;;;;;;;2.80;2.60;;;12.20;99.90;;;;;;5005821;28;20210;-72
2023/03/24 06:30:47;;;;;;;2.80;2.60;;;12.20;99.90;;;;;;5005607;28;20782;-71
2023/03/24 06:33:14;;;;;;;2.80;2.60;;;12.20;99.90;;;;;;5005962;28;20209;-72
2023/03/24 06:35:42;;;;;;;3.57;2.73;;;12.20;99.90;;;;;;5005778;28;20583;-72
2023/03/24 06:38:09;;;;;;;2.87;2.67;;;12.20;99.90;;;;;;5005812;28;20205;-72
2023/03/24 06:40:36;;;;;;;4.40;3.00;;;12.20;99.90;;;;;;5005786;28;20209;-73
2023/03/24 06:43:02;;;;;;;3.67;3.10;;;12.20;99.90;;;;;;5004572;28;20661;-72
2023/03/24 06:45:29;;;;;;;3.27;3.00;;;12.30;99.90;;;;;;5005445;28;20288;-73
2023/03/24 06:47:57;;;;;;;3.03;2.83;;;12.20;99.90;;;;;;5005339;28;20240;-72
2023/03/24 06:50:31;;;;;;;2.90;2.70;;;12.30;99.90;;;;;;5005062;28;20711;-72
2023/03/24 06:52:58;;;;;;;3.30;3.10;;;12.30;99.90;;;;;;5005255;28;20208;-73
2023/03/24 06:55:25;;;;;;;2.73;2.60;;;12.30;99.90;;;;;;5005070;28;20211;-72
2023/03/24 06:57:51;;;;;;;2.80;2.60;;;12.30;99.90;;;;;;5005449;28;20237;-72
2023/03/24 07:00:19;;;;;;;3.00;2.80;;;12.30;99.90;;;;;;5005242;28;20221;-72
2023/03/24 07:02:46;;;;;;;3.07;2.77;;;12.30;99.90;;;;;;5005493;28;20816;-73
2023/03/24 07:05:14;;;;;;;3.40;3.10;;;12.30;99.90;;;;;;5005349;28;20870;-72
2023/03/24 07:07:41;;;;;;;2.73;2.53;;;12.30;99.90;;;;;;5005002;28;20304;-72
2023/03/24 07:10:09;;;;;;;2.70;2.50;;;12.30;99.90;;;;;;5005105;28;20246;-72
2023/03/24 07:12:36;;;;;;;2.60;2.50;;;12.30;99.90;;;;;;5005687;28;20219;-72
2023/03/24 07:15:04;;;;;;;3.00;2.70;;;12.30;99.90;;;;;;5009258;28;20215;-73
2023/03/24 07:17:30;;;;;;;2.80;2.60;;;12.30;99.90;;;;;;5009217;28;20201;-72
2023/03/24 07:19:57;;;;;;;2.77;2.57;;;12.30;99.90;;;;;;5008637;28;20695;-72
2023/03/24 07:22:26;;;;;;;3.10;2.90;;;12.40;99.90;;;;;;5009447;28;20217;-72
2023/03/24 07:24:53;;;;;;;3.43;2.80;;;12.40;99.90;;;;;;5008732;28;20301;-73
2023/03/24 07:27:20;;;;;;;3.07;2.77;;;12.40;99.90;;;;;;5008733;28;20683;-72
2023/03/24 07:29:46;;;;;;;2.97;2.77;;;12.50;99.90;;;;;;5008660;28;20205;-72
2023/03/24 07:32:13;;;;;;;3.07;2.87;;;12.50;99.90;;;;;;5008646;28;20243;-72
2023/03/24 07:34:42;;;;;;;7.70;2.80;;;12.60;99.90;;;;;;5008259;28;20271;-72
2023/03/24 07:37:09;;;;;;;3.00;2.70;;;12.60;99.90;;;;;;5008739;28;20217;-72
2023/03/24 07:39:37;;;;;;;3.00;2.80;;;12.60;99.90;;;;;;5008685;28;20308;-72
2023/03/24 07:42:04;;;;;;;2.93;2.73;;;12.70;99.90;;;;;;5017395;28;20304;-72
2023/03/24 07:44:31;;;;;;;3.80;2.87;;;12.70;99.90;;;;;;5027748;28;20205;-72
2023/03/24 07:46:58;;;;;;;2.93;2.83;;;12.70;99.90;;;;;;5008420;28;20223;-73
2023/03/24 07:49:26;;;;;;;3.10;2.90;;;12.70;99.90;;;;;;5008320;28;20226;-72
2023/03/24 07:51:53;;;;;;;3.67;2.60;;;12.70;99.90;;;;;;5008201;28;20233;-73
2023/03/24 07:54:20;;;;;;;3.90;2.87;;;12.70;99.90;;;;;;5008346;28;20644;-73
2023/03/24 07:56:48;;;;;;;3.13;2.93;;;12.70;99.90;;;;;;5008266;28;20236;-73
2023/03/24 07:59:16;;;;;;;3.57;2.87;;;12.70;99.90;;;;;;5008516;28;20300;-73
2023/03/24 08:01:43;;;;;;;4.53;2.57;;;12.70;99.90;;;;;;5007939;28;20205;-72
2023/03/24 08:04:11;;;;;;;3.60;2.80;;;12.70;99.90;;;;;;5007604;28;20217;-72
2023/03/24 08:06:38;;;;;;;2.93;2.73;;;12.60;99.90;;;;;;5007865;28;20218;-73
2023/03/24 08:09:06;;;;;;;3.03;2.77;;;12.70;99.90;;;;;;5008068;28;20210;-72
2023/03/24 08:11:33;;;;;;;2.90;2.70;;;12.70;99.90;;;;;;5007714;28;20249;-72
2023/03/24 08:14:01;;;;;;;3.13;2.93;;;12.60;99.90;;;;;;5008024;28;20216;-72
2023/03/24 08:16:28;;;;;;;3.00;2.80;;;12.60;99.90;;;;;;5007850;28;20236;-73
2023/03/24 08:18:57;;;;;;;2.90;2.80;;;12.60;99.90;;;;;;5007821;28;20324;-73
2023/03/24 08:21:24;;;;;;;4.20;3.03;;;12.70;99.90;;;;;;5008050;28;20215;-72
2023/03/24 08:23:51;;;;;;;3.63;2.80;;;12.70;99.90;;;;;;5007851;28;20256;-72
2023/03/24 08:26:18;;;;;;;3.07;2.87;;;12.70;99.90;;;;;;5007909;28;20356;-72
2023/03/24 08:28:45;;;;;;;2.87;2.67;;;12.70;99.90;;;;;;4988432;28;20301;-73
2023/03/24 08:31:13;;;;;;;3.00;2.70;;;12.70;99.90;;;;;;4988048;28;20742;-72
2023/03/24 08:33:40;;;;;;;3.77;2.97;;;12.70;99.90;;;;;;4987859;28;20246;-73
2023/03/24 08:36:18;;;;;;;2.70;2.50;;;12.70;99.90;;;;;;4988312;28;20208;-73
2023/03/24 08:38:46;;;;;;;3.10;2.80;;;12.70;99.90;;;;;;4997674;28;20649;-73
2023/03/24 08:41:13;;;;;;;3.30;2.93;;;12.70;99.90;;;;;;5004852;28;20221;-72
2023/03/24 08:43:40;;;;;;;3.07;2.80;;;12.70;99.90;;;;;;4987541;28;20241;-72
2023/03/24 08:46:08;;;;;;;3.03;2.83;;;12.80;99.90;;;;;;5001283;28;20296;-72
2023/03/24 08:48:39;;;;;;;2.87;2.70;;;12.80;99.90;;;;;;5007246;28;20233;-72
2023/03/24 08:51:11;;;;;;;3.07;2.83;;;12.90;99.90;;;;;;5007305;28;20221;-72
2023/03/24 08:53:38;;;;;;;2.80;2.60;;;12.90;99.90;;;;;;5006910;28;20200;-72
2023/03/24 08:56:05;;;;;;;2.67;2.57;;;13.00;99.90;;;;;;5007258;28;20243;-72
2023/03/24 08:58:32;;;;;;;2.77;2.57;;;13.10;99.90;;;;;;5007330;28;20220;-72
2023/03/24 09:00:59;;;;;;;3.03;2.77;;;13.20;99.90;;;;;;5007315;28;20215;-72
2023/03/24 09:03:26;;;;;;;2.67;2.47;;;13.20;99.90;;;;;;5007170;28;20847;-71
2023/03/24 09:05:57;;;;;;;2.90;2.70;;;13.30;99.90;;;;;;5007235;28;20632;-71
2023/03/24 09:08:25;;;;;;;3.00;2.80;;;13.30;99.90;;;;;;5007568;28;20317;-72
2023/03/24 09:10:52;;;;;;;4.50;2.90;;;13.30;99.90;;;;;;5006806;28;20245;-72
2023/03/24 09:13:21;;;;;;;2.90;2.67;;;13.30;99.90;;;;;;5005111;28;20217;-72
2023/03/24 09:15:48;;;;;;;4.00;2.83;;;13.40;99.90;;;;;;5007026;28;20666;-71
2023/03/24 09:18:16;;;;;;;3.17;2.87;;;13.40;99.90;;;;;;5007244;28;20240;-71
2023/03/24 09:20:42;;;;;;;2.97;2.70;;;13.40;99.90;;;;;;5006523;28;20217;-71
2023/03/24 09:23:11;;;;;;;2.73;2.53;;;13.50;99.90;;;;;;5011375;28;20287;-71
2023/03/24 09:25:38;;;;;;;2.83;2.60;;;13.50;99.90;;;;;;5026521;28;20215;-71
2023/03/24 09:28:07;;;;;;;3.40;3.13;;;13.60;99.90;;;;;;5026470;28;20236;-71
2023/03/24 09:30:34;;;;;;;2.90;2.70;;;13.70;99.90;;;;;;5026253;28;20236;-73
2023/03/24 09:33:01;;;;;;;4.67;2.90;;;13.80;99.90;;;;;;5025897;28;20338;-72
2023/03/24 09:35:28;;;;;;;2.70;2.50;;;13.90;99.90;;;;;;5025749;28;20292;-71
2023/03/24 09:37:55;;;;;;;3.33;3.03;;;14.10;99.90;;;;;;5025923;28;20491;-72
2023/03/24 09:40:26;;;;;;;2.50;2.37;;;14.20;99.90;;;;;;5026321;28;20209;-72
2023/03/24 09:42:58;;;;;;;3.03;2.80;;;14.20;99.90;;;;;;5025442;28;20252;-71
2023/03/24 09:45:28;;;;;;;2.80;2.60;;;14.20;99.90;;;;;;5018445;28;20292;-71
2023/03/24 09:47:58;;;;;;;2.90;2.70;;;14.30;99.90;;;;;;5006445;28;20221;-71
2023/03/24 09:50:28;;;;;;;2.57;2.43;;;14.40;99.90;;;;;;5006277;28;20202;-72
2023/03/24 09:53:00;;;;;;;2.60;2.40;;;14.40;99.90;;;;;;5006401;28;21086;-71
2023/03/24 09:55:29;;;;;;;2.60;2.50;;;14.50;99.90;;;;;;5006332;28;20208;-71
2023/03/24 09:57:59;;;;;;;2.40;2.30;;;14.60;99.90;;;;;;5006219;28;20206;-72
2023/03/24 10:00:28;;;;;;;3.00;2.80;;;14.60;99.90;;;;;;5006459;28;20213;-72
2023/03/24 10:03:00;;;;;;;2.60;2.40;;;14.50;99.90;;;;;;5005838;28;20216;-72
2023/03/24 10:05:33;;;;;;;2.27;2.17;;;14.60;99.90;;;;;;5006054;28;20210;-71
2023/03/24 10:08:10;;;;;;;2.13;2.00;;;14.60;99.90;;;;;;5005771;28;20297;-72
2023/03/24 10:10:56;;;;;;;2.00;1.90;;;14.60;99.90;;;;;;5005553;28;20237;-71
2023/03/24 10:13:32;;;;;;;2.00;1.90;;;14.70;99.90;;;;;;4986275;28;20293;-71
2023/03/24 10:16:06;;;;;;;1.90;1.73;;;14.70;99.90;;;;;;4990388;28;20220;-71
2023/03/24 10:18:38;;;;;;;2.00;1.90;;;14.70;99.90;;;;;;5005874;28;20225;-71
2023/03/24 10:21:13;;;;;;;2.03;1.93;;;14.70;99.90;;;;;;5005963;28;20202;-72
2023/03/24 10:23:47;;;;;;;2.00;1.90;;;14.70;99.90;;;;;;5005925;28;20292;-71
2023/03/24 10:26:27;;;;;;;2.27;2.17;;;14.70;99.90;;;;;;5005969;28;20288;-71
2023/03/24 10:29:06;;;;;;;2.27;2.13;;;14.80;99.90;;;;;;5005800;28;20208;-72
2023/03/24 10:31:36;;;;;;;2.60;2.40;;;15.00;99.90;;;;;;5005707;28;20834;-72
2023/03/24 10:34:03;;;;;;;2.30;2.20;;;15.30;99.90;;;;;;5005528;28;20271;-72
2023/03/24 10:36:30;;;;;;;3.30;3.10;;;15.40;99.90;;;;;;5005830;28;20213;-72
2023/03/24 10:38:57;;;;;;;4.63;2.40;;;15.50;99.90;;;;;;5005612;28;20217;-72
2023/03/24 10:41:29;;;;;;;2.60;2.40;;;15.50;99.90;;;;;;5005033;28;20308;-72
2023/03/24 10:43:58;;;;;;;3.00;2.40;;;15.40;99.90;;;;;;5005599;28;20280;-72
2023/03/24 10:46:30;;;;;;;2.20;2.10;;;15.40;99.90;;;;;;5005085;28;20731;-72
2023/03/24 10:49:08;;;;;;;2.93;2.40;;;15.30;99.90;;;;;;5005091;28;20244;-72
2023/03/24 10:51:36;;;;;;;2.70;2.50;;;15.30;99.90;;;;;;5005356;28;20252;-73
2023/03/24 10:54:15;;;;;;;2.97;2.63;;;15.30;99.90;;;;;;5005484;28;20221;-72
2023/03/24 10:56:45;;;;;;;2.57;2.40;;;15.30;99.90;;;;;;5005498;28;20551;-72
2023/03/24 10:59:21;;;;;;;2.40;2.30;;;15.30;99.90;;;;;;5005642;28;20202;-72
2023/03/24 11:01:48;;;;;;;2.40;2.07;;;15.30;99.90;;;;;;5005410;28;20810;-72
2023/03/24 11:04:18;;;;;;;2.50;2.40;;;15.30;99.90;;;;;;5004845;28;20736;-72
2023/03/24 11:06:59;;;;;;;3.20;2.23;;;15.30;99.90;;;;;;5005892;28;20237;-72
2023/03/24 11:09:26;;;;;;;6.43;4.00;;;15.30;99.90;;;;;;5005837;28;20198;-71
2023/03/24 11:11:57;;;;;;;2.63;2.43;;;15.40;99.90;;;;;;5005345;28;20316;-72
2023/03/24 11:14:26;;;;;;;2.57;2.07;;;15.40;99.90;;;;;;5005870;28;20198;-72
2023/03/24 11:17:01;;;;;;;2.53;2.40;;;15.50;99.90;;;;;;5005373;28;20312;-72
2023/03/24 11:19:31;;;;;;;2.90;2.57;;;15.70;99.90;;;;;;5004807;28;20197;-72
2023/03/24 11:22:02;;;;;;;2.73;2.53;;;15.80;99.90;;;;;;5005165;28;20217;-72
2023/03/24 11:24:30;;;;;;;2.67;2.47;;;16.10;99.90;;;;;;5005360;28;20216;-72
2023/03/24 11:27:00;;;;;;;2.43;2.33;;;16.30;99.90;;;;;;5004863;28;20209;-71
2023/03/24 11:29:30;;;;;;;2.37;2.23;;;16.20;99.90;;;;;;5004762;28;20661;-72
2023/03/24 11:31:59;;;;;;;1.90;1.80;;;16.10;99.90;;;;;;5004631;28;20233;-72
2023/03/24 11:34:32;;;;;;;3.07;2.87;;;16.10;99.90;;;;;;5004516;28;20622;-72
2023/03/24 11:37:02;;;;;;;2.40;2.30;;;16.10;99.90;;;;;;5004843;28;20207;-72
2023/03/24 11:39:31;;;;;;;2.70;2.60;;;16.10;99.90;;;;;;5005008;28;20221;-72
2023/03/24 11:42:17;;;;;;;2.43;2.23;;;16.10;99.90;;;;;;5012924;28;20220;-72
2023/03/24 11:44:49;;;;;;;1.97;1.87;;;16.10;99.90;;;;;;5022030;28;20193;-72
2023/03/24 11:47:23;;;;;;;3.67;2.10;;;16.00;99.90;;;;;;5004728;28;20780;-72
2023/03/24 11:52:48;;;;;;;1.90;1.80;;;15.80;99.90;;;;;;5004418;28;20233;-72
2023/03/24 12:05:39;;;;;;;1.80;1.67;;;16.00;99.90;;;;;;5008020;28;20260;-72
2023/03/24 12:08:22;;;;;;;1.93;1.70;;;16.00;99.90;;;;;;5008384;28;20244;-73
2023/03/24 12:11:07;;;;;;;2.10;1.77;;;16.00;99.90;;;;;;5007724;28;20268;-72
2023/03/24 12:13:36;;;;;;;2.33;1.90;;;16.00;99.90;;;;;;4988667;28;20324;-73
2023/03/24 12:16:25;;;;;;;2.13;1.93;;;16.10;99.90;;;;;;4988375;28;20652;-73
2023/03/24 12:19:12;;;;;;;1.87;1.80;;;16.00;99.90;;;;;;4988493;28;20199;-73
2023/03/24 12:21:49;;;;;;;1.60;1.60;;;15.90;99.90;;;;;;4988266;28;20578;-73
2023/03/24 12:24:27;;;;;;;1.90;1.80;;;15.80;99.90;;;;;;4988510;28;20277;-73
2023/03/24 12:26:59;;;;;;;1.60;1.50;;;15.80;99.90;;;;;;4988024;28;20205;-73
2023/03/24 12:29:37;;;;;;;1.70;1.70;;;15.80;99.90;;;;;;4987995;28;20716;-73
2023/03/24 12:32:27;;;;;;;1.97;1.87;;;15.80;99.90;;;;;;4987943;28;20218;-73
2023/03/24 12:35:11;;;;;;;2.13;2.03;;;15.70;99.90;;;;;;4987778;28;20292;-73
2023/03/24 12:37:48;;;;;;;2.97;1.80;;;15.70;99.90;;;;;;4988002;28;20195;-73
2023/03/24 12:40:42;;;;;;;1.60;1.50;;;15.70;99.90;;;;;;4988234;28;20558;-74
2023/03/24 12:43:22;;;;;;;1.90;1.80;;;15.70;99.90;;;;;;5006551;28;20619;-74
2023/03/24 12:45:52;;;;;;;1.80;1.70;;;15.70;99.90;;;;;;5007325;28;20252;-72
2023/03/24 12:48:34;;;;;;;2.27;1.80;;;15.70;99.90;;;;;;5007419;28;20193;-71
2023/03/24 12:51:14;;;;;;;3.73;1.70;;;15.60;99.90;;;;;;5007103;28;20201;-72
2023/03/24 12:53:54;;;;;;;1.53;1.43;;;15.50;99.90;;;;;;5007393;28;20313;-71
2023/03/24 12:56:26;;;;;;;1.63;1.53;;;15.50;99.90;;;;;;5007331;28;20198;-72
2023/03/24 12:58:57;;;;;;;1.83;1.70;;;15.50;99.90;;;;;;5007284;28;20207;-72
2023/03/24 13:01:28;;;;;;;1.57;1.47;;;15.50;99.90;;;;;;5007493;28;20289;-72
2023/03/24 13:04:00;;;;;;;1.73;1.60;;;15.50;99.90;;;;;;5007041;28;20312;-72
2023/03/24 13:06:33;;;;;;;1.90;1.20;;;15.50;99.90;;;;;;5006872;28;20660;-73
2023/03/24 13:09:13;;;;;;;1.43;1.33;;;15.40;99.90;;;;;;5007159;28;20300;-72
2023/03/24 13:11:48;;;;;;;1.30;1.10;;;15.40;99.90;;;;;;5005809;28;20303;-72
2023/03/24 13:14:20;;;;;;;1.43;1.33;;;15.30;99.90;;;;;;5006966;28;20212;-72
2023/03/24 13:16:49;;;;;;;1.10;1.10;;;15.20;99.90;;;;;;5006903;28;20233;-73
2023/03/24 13:19:19;;;;;;;1.20;1.03;;;15.20;99.90;;;;;;5006493;28;20213;-73
2023/03/24 13:21:47;;;;;;;1.37;1.27;;;15.10;99.90;;;;;;5007172;28;20572;-73